Baden, Switzerland
Current Conditions -  °F | °C
As of 10:50 PM on Thursday 23 Oct 2014 (Local Time) from LSZH Reporting Station
Broken Clouds Broken Clouds  
Wind Chill: 46°   Ceiling: 3700
Heat Index: 46°   Visibility: 6mi
Dew Point: 41°   Wind: 2mph
Humidity: 81%   Direction: NA
Pressure: 30.24"   Gusts: NA
Location:  47.48°N, 8.31°E
Report Text: LSZH 232050Z VRB02KT 9999 BKN037 08/05 Q1024 NOSIG
Loading
Personal Weather Stations






























Interactive Weather Map
Tropical Storm Tracking
New forecast layout! Learn more

10-Day Weather Forecast

Advertisements
Track Severe Weather on mobile